Arcadia — SY7849 — position and weather

sailwx.info

Track history (hours):
 
Tides and Currents Weather Stations Pressure Air Temp Water Temp Dewpoint Dewpoint Depression Visibility Wind Speed Wind Dir Waves Ship Positions

Arcadia

Last reported at 2017-Dec-16 05:46 UTC. Time now 2017-Dec-16 17:09 UTC.
Position N 35°34' E 024°04'.

Length 76 m; draft 4.7 m.

Type: Tanker. MMSI: 240560000.

Date/timePositionNaut miles runAvg speedWind from/ knotsBaromVisibWave heightAir tempDewpointWater temp
2017-Dec-16 05:46N 35°34' E 024°04'0 0.2
2017-Dec-16 05:30N 35°33' E 024°04'0 0.0
2017-Dec-16 04:57N 35°33' E 024°04'0 0.0
2017-Dec-16 03:48N 35°33' E 024°04'0 0.0
2017-Dec-16 02:21N 35°33' E 024°04'  
2017-Dec-13 15:56N 35°46' E 024°47'3 6.8
2017-Dec-13 15:30N 35°47' E 024°51'10 6.8
2017-Dec-13 14:06N 35°49' E 025°02'1 6.9
2017-Dec-13 14:01N 35°49' E 025°03'3 6.9
2017-Dec-13 13:31N 35°50' E 025°07'3 6.7
2017-Dec-13 13:01N 35°51' E 025°11'3 6.9
2017-Dec-13 12:30N 35°51' E 025°15'4 7.1
2017-Dec-13 12:01N 35°52' E 025°20'4 7.2
2017-Dec-13 11:30N 35°53' E 025°24'4 7.2
2017-Dec-13 11:01N 35°54' E 025°28'4 7.4
2017-Dec-13 10:31N 35°55' E 025°32'4 7.5
2017-Dec-13 10:01N 35°56' E 025°37'4 7.7
2017-Dec-13 09:30N 35°57' E 025°42'4 7.6
2017-Dec-13 09:01N 35°58' E 025°46'4 7.4
2017-Dec-13 08:30N 35°59' E 025°51'4 7.5
2017-Dec-13 08:00N 36°00' E 025°55'4 7.4
2017-Dec-13 07:31N 36°01' E 025°59'4 7.8
2017-Dec-13 07:01N 36°02' E 026°04'4 7.7
2017-Dec-13 06:30N 36°03' E 026°09'4 7.6
2017-Dec-13 06:01N 36°04' E 026°13'4 7.6
2017-Dec-13 05:31N 36°05' E 026°18'4 7.8
2017-Dec-13 05:00N 36°06' E 026°22'4 7.7
2017-Dec-13 04:30N 36°07' E 026°27'4 7.8
2017-Dec-13 04:01N 36°08' E 026°32'4 8.0
2017-Dec-13 03:30N 36°09' E 026°37'4 8.1
2017-Dec-13 03:00N 36°10' E 026°41'4 8.0
2017-Dec-13 02:29N 36°11' E 026°46'5 8.0
2017-Dec-13 01:49N 36°12' E 026°53'10 8.1
2017-Dec-13 00:37N 36°14' E 027°05'38 1.2
2017-Dec-11 17:30N 36°45' E 026°37'6 8.1
2017-Dec-11 16:49N 36°48' E 026°31'3 8.4
2017-Dec-11 16:31N 36°50' E 026°29'6 8.6
2017-Dec-11 15:48N 36°53' E 026°22'3 8.7
2017-Dec-11 15:30N 36°54' E 026°20'4 8.5
2017-Dec-11 15:01N 36°57' E 026°15'4 8.5
2017-Dec-11 14:31N 36°59' E 026°11'4 8.6
2017-Dec-11 14:01N 37°02' E 026°07'4 8.6
2017-Dec-11 13:31N 37°04' E 026°02'4 8.4
2017-Dec-11 13:01N 37°07' E 025°58'4 8.4
2017-Dec-11 12:31N 37°09' E 025°54'4 8.4
2017-Dec-11 12:00N 37°11' E 025°49'4 8.3
2017-Dec-11 11:29N 37°12' E 025°43'4 8.2
2017-Dec-11 11:00N 37°13' E 025°39'5 8.1
2017-Dec-11 10:22N 37°14' E 025°32'3 9.5
2017-Dec-11 10:00N 37°14' E 025°28'4 7.5
2017-Dec-11 09:31N 37°14' E 025°23'4 8.4
2017-Dec-11 09:00N 37°14' E 025°18'4 8.5
2017-Dec-11 08:31N 37°14' E 025°13'4 8.6
2017-Dec-11 08:00N 37°14' E 025°07'4 8.5
2017-Dec-11 07:30N 37°14' E 025°02'4 8.5
2017-Dec-11 07:01N 37°14' E 024°57'4 8.6
2017-Dec-11 06:31N 37°14' E 024°51'4 8.7
2017-Dec-11 06:01N 37°14' E 024°46'4 8.5
2017-Dec-11 05:30N 37°14' E 024°40'4 8.2
2017-Dec-11 05:01N 37°14' E 024°35'4 8.1
2017-Dec-11 04:30N 37°14' E 024°30'4 8.0
2017-Dec-11 04:00N 37°14' E 024°25'4 8.0
2017-Dec-11 03:30N 37°14' E 024°20'4 7.9
2017-Dec-11 03:00N 37°15' E 024°15'4 8.0
2017-Dec-11 02:28N 37°16' E 024°10'29 8.2
2017-Dec-10 22:57N 37°23' E 023°35'4 8.1
2017-Dec-10 22:24N 37°23' E 023°29'3 8.2
2017-Dec-10 22:00N 37°23' E 023°25'1 0.1
2017-Dec-10 00:33N 37°24' E 023°24'0 1.9
2017-Dec-10 00:29N 37°24' E 023°24'4 6.1
2017-Dec-09 23:50N 37°24' E 023°29'4 7.3
2017-Dec-09 23:20N 37°24' E 023°33'5 6.2
2017-Dec-09 22:35N 37°29' E 023°35'4 7.0
2017-Dec-09 22:04N 37°32' E 023°35'1 7.4
2017-Dec-09 21:59N 37°33' E 023°35'4 7.5
2017-Dec-09 21:30N 37°36' E 023°34'4 7.9
2017-Dec-09 21:00N 37°38' E 023°29'4 8.2
2017-Dec-09 20:31N 37°39' E 023°24'4 8.2
2017-Dec-09 20:00N 37°40' E 023°19'4 7.3
2017-Dec-09 19:30N 37°43' E 023°17'4 8.2
2017-Dec-09 19:00N 37°47' E 023°14'4 8.2
2017-Dec-09 18:30N 37°50' E 023°11'4 8.2
2017-Dec-09 18:00N 37°53' E 023°08'3 5.5
2017-Dec-09 17:28N 37°55' E 023°05'0 0.0
2017-Dec-09 16:58N 37°55' E 023°05'0 0.0
2017-Dec-09 16:28N 37°55' E 023°05'0 0.0
2017-Dec-09 15:58N 37°55' E 023°05'0 0.0
2017-Dec-09 15:28N 37°55' E 023°05'0 0.0
2017-Dec-09 14:58N 37°55' E 023°05'0 0.0
2017-Dec-09 14:28N 37°55' E 023°05'0 0.0
2017-Dec-09 13:58N 37°55' E 023°05'0 0.0
2017-Dec-09 13:28N 37°55' E 023°05'0 0.0
2017-Dec-09 12:58N 37°55' E 023°05'0 0.0
2017-Dec-09 12:28N 37°55' E 023°05'0 0.0
2017-Dec-09 11:58N 37°55' E 023°05'0 0.0
2017-Dec-09 11:28N 37°55' E 023°05'0 0.0
2017-Dec-09 10:58N 37°55' E 023°05'0 0.0
2017-Dec-09 10:28N 37°55' E 023°05'0 0.0
2017-Dec-09 09:58N 37°55' E 023°05'0 0.0
2017-Dec-09 09:28N 37°55' E 023°05'0 0.0
2017-Dec-09 08:58N 37°55' E 023°05'0 0.0
2017-Dec-09 08:28N 37°55' E 023°05'0 0.0
2017-Dec-09 07:58N 37°55' E 023°05'0 0.0
2017-Dec-09 07:28N 37°55' E 023°05'0 0.0
2017-Dec-09 06:58N 37°55' E 023°05'0 0.0
2017-Dec-09 06:28N 37°55' E 023°05'0 0.0
2017-Dec-09 05:58N 37°55' E 023°05'0 0.0
2017-Dec-09 05:28N 37°55' E 023°05'0 0.0
2017-Dec-09 04:58N 37°55' E 023°05'0 0.0
2017-Dec-09 04:28N 37°55' E 023°05'0 0.0
2017-Dec-09 03:58N 37°55' E 023°05'0 0.0
2017-Dec-09 03:28N 37°55' E 023°05'0 0.0
2017-Dec-09 02:58N 37°55' E 023°05'0 0.0
2017-Dec-09 02:28N 37°55' E 023°05'0 0.0
2017-Dec-09 01:58N 37°55' E 023°05'0 0.0
2017-Dec-09 01:28N 37°55' E 023°05'0 0.0
2017-Dec-09 00:58N 37°55' E 023°05'0 0.0
2017-Dec-09 00:28N 37°55' E 023°05'0 0.0
2017-Dec-08 23:58N 37°55' E 023°05'0 0.0
2017-Dec-08 23:28N 37°55' E 023°05'0 0.0
2017-Dec-08 22:58N 37°55' E 023°05'0 0.0
2017-Dec-08 22:28N 37°55' E 023°05'0 0.0
2017-Dec-08 21:58N 37°55' E 023°05'0 0.0
2017-Dec-08 21:28N 37°55' E 023°05'0 0.0
2017-Dec-08 20:58N 37°55' E 023°05'0 0.0
2017-Dec-08 20:28N 37°55' E 023°05'0 0.0
2017-Dec-08 19:58N 37°55' E 023°05'0 0.0
2017-Dec-08 19:28N 37°55' E 023°05'0 0.0
2017-Dec-08 18:58N 37°55' E 023°05'0 0.0
2017-Dec-08 18:28N 37°55' E 023°05'0 0.0
2017-Dec-08 17:58N 37°55' E 023°05'0 0.0
2017-Dec-08 17:28N 37°55' E 023°05'0 0.0
2017-Dec-08 17:00N 37°55' E 023°05'0 0.0
2017-Dec-08 16:30N 37°55' E 023°05'0 0.5
2017-Dec-08 16:00N 37°55' E 023°06'1 1.3
2017-Dec-08 15:30N 37°55' E 023°06'2 4.7
2017-Dec-08 15:00N 37°53' E 023°09'5 9.4
2017-Dec-08 14:30N 37°49' E 023°12'5 9.3
2017-Dec-08 14:00N 37°45' E 023°15'5 8.9
2017-Dec-08 13:30N 37°41' E 023°17'4 7.5
2017-Dec-08 13:00N 37°40' E 023°22'5 9.2
2017-Dec-08 12:29N 37°38' E 023°28'4 9.4
2017-Dec-08 12:00N 37°37' E 023°33'11 8.9
2017-Dec-08 10:43N 37°26' E 023°36'4 9.4
2017-Dec-08 10:19N 37°22' E 023°37'3 9.3
2017-Dec-08 09:59N 37°19' E 023°38'6 9.4
2017-Dec-08 09:23N 37°13' E 023°39'4 9.2
2017-Dec-08 09:00N 37°10' E 023°40'5 8.9
2017-Dec-08 08:28N 37°05' E 023°41'6 8.8
2017-Dec-08 07:50N 36°60' E 023°43'3 8.6
2017-Dec-08 07:26N 36°56' E 023°44'4 8.8
2017-Dec-08 07:00N 36°53' E 023°45'5 8.9
2017-Dec-08 06:28N 36°48' E 023°46'4 9.1
2017-Dec-08 06:00N 36°44' E 023°47'5 9.3
2017-Dec-08 05:30N 36°40' E 023°49'5 9.1
2017-Dec-08 05:00N 36°35' E 023°50'5 9.1
2017-Dec-08 04:30N 36°30' E 023°50'5 9.1
2017-Dec-08 03:58N 36°26' E 023°51'5 9.2
2017-Dec-08 03:25N 36°21' E 023°52'4 9.1
2017-Dec-08 03:00N 36°17' E 023°53'8 8.9
2017-Dec-08 02:07N 36°09' E 023°55'3 8.9
2017-Dec-08 01:46N 36°06' E 023°55'27 1.2
2017-Dec-07 02:34N 36°33' E 023°49'1 8.0
2017-Dec-07 02:30N 36°34' E 023°49'4 8.1
2017-Dec-07 01:58N 36°38' E 023°48'  
Track history (hours):
 
Tides and Currents Weather Stations Pressure Air Temp Water Temp Dewpoint Dewpoint Depression Visibility Wind Speed Wind Dir Waves Ship Positions

Arcadia

Last reported at 2017-Dec-16 05:46 UTC. Time now 2017-Dec-16 17:09 UTC.
Position N 35°34' E 024°04'.

Length 76 m; draft 4.7 m.

Type: Tanker. MMSI: 240560000.

Date/timePositionNaut miles runAvg speedWind from/ knotsBaromVisibWave heightAir tempDewpointWater temp
2017-Dec-16 05:46N 35°34' E 024°04'0 0.2
2017-Dec-16 05:30N 35°33' E 024°04'0 0.0
2017-Dec-16 04:57N 35°33' E 024°04'0 0.0
2017-Dec-16 03:48N 35°33' E 024°04'0 0.0
2017-Dec-16 02:21N 35°33' E 024°04'  
2017-Dec-13 15:56N 35°46' E 024°47'3 6.8
2017-Dec-13 15:30N 35°47' E 024°51'10 6.8
2017-Dec-13 14:06N 35°49' E 025°02'1 6.9
2017-Dec-13 14:01N 35°49' E 025°03'3 6.9
2017-Dec-13 13:31N 35°50' E 025°07'3 6.7
2017-Dec-13 13:01N 35°51' E 025°11'3 6.9
2017-Dec-13 12:30N 35°51' E 025°15'4 7.1
2017-Dec-13 12:01N 35°52' E 025°20'4 7.2
2017-Dec-13 11:30N 35°53' E 025°24'4 7.2
2017-Dec-13 11:01N 35°54' E 025°28'4 7.4
2017-Dec-13 10:31N 35°55' E 025°32'4 7.5
2017-Dec-13 10:01N 35°56' E 025°37'4 7.7
2017-Dec-13 09:30N 35°57' E 025°42'4 7.6
2017-Dec-13 09:01N 35°58' E 025°46'4 7.4
2017-Dec-13 08:30N 35°59' E 025°51'4 7.5
2017-Dec-13 08:00N 36°00' E 025°55'4 7.4
2017-Dec-13 07:31N 36°01' E 025°59'4 7.8
2017-Dec-13 07:01N 36°02' E 026°04'4 7.7
2017-Dec-13 06:30N 36°03' E 026°09'4 7.6
2017-Dec-13 06:01N 36°04' E 026°13'4 7.6
2017-Dec-13 05:31N 36°05' E 026°18'4 7.8
2017-Dec-13 05:00N 36°06' E 026°22'4 7.7
2017-Dec-13 04:30N 36°07' E 026°27'4 7.8
2017-Dec-13 04:01N 36°08' E 026°32'4 8.0
2017-Dec-13 03:30N 36°09' E 026°37'4 8.1
2017-Dec-13 03:00N 36°10' E 026°41'4 8.0
2017-Dec-13 02:29N 36°11' E 026°46'5 8.0
2017-Dec-13 01:49N 36°12' E 026°53'10 8.1
2017-Dec-13 00:37N 36°14' E 027°05'38 1.2
2017-Dec-11 17:30N 36°45' E 026°37'6 8.1
2017-Dec-11 16:49N 36°48' E 026°31'3 8.4
2017-Dec-11 16:31N 36°50' E 026°29'6 8.6
2017-Dec-11 15:48N 36°53' E 026°22'3 8.7
2017-Dec-11 15:30N 36°54' E 026°20'4 8.5
2017-Dec-11 15:01N 36°57' E 026°15'4 8.5
2017-Dec-11 14:31N 36°59' E 026°11'4 8.6
2017-Dec-11 14:01N 37°02' E 026°07'4 8.6
2017-Dec-11 13:31N 37°04' E 026°02'4 8.4
2017-Dec-11 13:01N 37°07' E 025°58'4 8.4
2017-Dec-11 12:31N 37°09' E 025°54'4 8.4
2017-Dec-11 12:00N 37°11' E 025°49'4 8.3
2017-Dec-11 11:29N 37°12' E 025°43'4 8.2
2017-Dec-11 11:00N 37°13' E 025°39'5 8.1
2017-Dec-11 10:22N 37°14' E 025°32'3 9.5
2017-Dec-11 10:00N 37°14' E 025°28'4 7.5
2017-Dec-11 09:31N 37°14' E 025°23'4 8.4
2017-Dec-11 09:00N 37°14' E 025°18'4 8.5
2017-Dec-11 08:31N 37°14' E 025°13'4 8.6
2017-Dec-11 08:00N 37°14' E 025°07'4 8.5
2017-Dec-11 07:30N 37°14' E 025°02'4 8.5
2017-Dec-11 07:01N 37°14' E 024°57'4 8.6
2017-Dec-11 06:31N 37°14' E 024°51'4 8.7
2017-Dec-11 06:01N 37°14' E 024°46'4 8.5
2017-Dec-11 05:30N 37°14' E 024°40'4 8.2
2017-Dec-11 05:01N 37°14' E 024°35'4 8.1
2017-Dec-11 04:30N 37°14' E 024°30'4 8.0
2017-Dec-11 04:00N 37°14' E 024°25'4 8.0
2017-Dec-11 03:30N 37°14' E 024°20'4 7.9
2017-Dec-11 03:00N 37°15' E 024°15'4 8.0
2017-Dec-11 02:28N 37°16' E 024°10'29 8.2
2017-Dec-10 22:57N 37°23' E 023°35'4 8.1
2017-Dec-10 22:24N 37°23' E 023°29'3 8.2
2017-Dec-10 22:00N 37°23' E 023°25'1 0.1
2017-Dec-10 00:33N 37°24' E 023°24'0 1.9
2017-Dec-10 00:29N 37°24' E 023°24'4 6.1
2017-Dec-09 23:50N 37°24' E 023°29'4 7.3
2017-Dec-09 23:20N 37°24' E 023°33'5 6.2
2017-Dec-09 22:35N 37°29' E 023°35'4 7.0
2017-Dec-09 22:04N 37°32' E 023°35'1 7.4
2017-Dec-09 21:59N 37°33' E 023°35'4 7.5
2017-Dec-09 21:30N 37°36' E 023°34'4 7.9
2017-Dec-09 21:00N 37°38' E 023°29'4 8.2
2017-Dec-09 20:31N 37°39' E 023°24'4 8.2
2017-Dec-09 20:00N 37°40' E 023°19'4 7.3
2017-Dec-09 19:30N 37°43' E 023°17'4 8.2
2017-Dec-09 19:00N 37°47' E 023°14'4 8.2
2017-Dec-09 18:30N 37°50' E 023°11'4 8.2
2017-Dec-09 18:00N 37°53' E 023°08'3 5.5
2017-Dec-09 17:28N 37°55' E 023°05'0 0.0
2017-Dec-09 16:58N 37°55' E 023°05'0 0.0
2017-Dec-09 16:28N 37°55' E 023°05'0 0.0
2017-Dec-09 15:58N 37°55' E 023°05'0 0.0
2017-Dec-09 15:28N 37°55' E 023°05'0 0.0
2017-Dec-09 14:58N 37°55' E 023°05'0 0.0
2017-Dec-09 14:28N 37°55' E 023°05'0 0.0
2017-Dec-09 13:58N 37°55' E 023°05'0 0.0
2017-Dec-09 13:28N 37°55' E 023°05'0 0.0
2017-Dec-09 12:58N 37°55' E 023°05'0 0.0
2017-Dec-09 12:28N 37°55' E 023°05'0 0.0
2017-Dec-09 11:58N 37°55' E 023°05'0 0.0
2017-Dec-09 11:28N 37°55' E 023°05'0 0.0
2017-Dec-09 10:58N 37°55' E 023°05'0 0.0
2017-Dec-09 10:28N 37°55' E 023°05'0 0.0
2017-Dec-09 09:58N 37°55' E 023°05'0 0.0
2017-Dec-09 09:28N 37°55' E 023°05'0 0.0
2017-Dec-09 08:58N 37°55' E 023°05'0 0.0
2017-Dec-09 08:28N 37°55' E 023°05'0 0.0
2017-Dec-09 07:58N 37°55' E 023°05'0 0.0
2017-Dec-09 07:28N 37°55' E 023°05'0 0.0
2017-Dec-09 06:58N 37°55' E 023°05'0 0.0
2017-Dec-09 06:28N 37°55' E 023°05'0 0.0
2017-Dec-09 05:58N 37°55' E 023°05'0 0.0
2017-Dec-09 05:28N 37°55' E 023°05'0 0.0
2017-Dec-09 04:58N 37°55' E 023°05'0 0.0
2017-Dec-09 04:28N 37°55' E 023°05'0 0.0
2017-Dec-09 03:58N 37°55' E 023°05'0 0.0
2017-Dec-09 03:28N 37°55' E 023°05'0 0.0
2017-Dec-09 02:58N 37°55' E 023°05'0 0.0
2017-Dec-09 02:28N 37°55' E 023°05'0 0.0
2017-Dec-09 01:58N 37°55' E 023°05'0 0.0
2017-Dec-09 01:28N 37°55' E 023°05'0 0.0
2017-Dec-09 00:58N 37°55' E 023°05'0 0.0
2017-Dec-09 00:28N 37°55' E 023°05'0 0.0
2017-Dec-08 23:58N 37°55' E 023°05'0 0.0
2017-Dec-08 23:28N 37°55' E 023°05'0 0.0
2017-Dec-08 22:58N 37°55' E 023°05'0 0.0
2017-Dec-08 22:28N 37°55' E 023°05'0 0.0
2017-Dec-08 21:58N 37°55' E 023°05'0 0.0
2017-Dec-08 21:28N 37°55' E 023°05'0 0.0
2017-Dec-08 20:58N 37°55' E 023°05'0 0.0
2017-Dec-08 20:28N 37°55' E 023°05'0 0.0
2017-Dec-08 19:58N 37°55' E 023°05'0 0.0
2017-Dec-08 19:28N 37°55' E 023°05'0 0.0
2017-Dec-08 18:58N 37°55' E 023°05'0 0.0
2017-Dec-08 18:28N 37°55' E 023°05'0 0.0
2017-Dec-08 17:58N 37°55' E 023°05'0 0.0
2017-Dec-08 17:28N 37°55' E 023°05'0 0.0
2017-Dec-08 17:00N 37°55' E 023°05'0 0.0
2017-Dec-08 16:30N 37°55' E 023°05'0 0.5
2017-Dec-08 16:00N 37°55' E 023°06'1 1.3
2017-Dec-08 15:30N 37°55' E 023°06'2 4.7
2017-Dec-08 15:00N 37°53' E 023°09'5 9.4
2017-Dec-08 14:30N 37°49' E 023°12'5 9.3
2017-Dec-08 14:00N 37°45' E 023°15'5 8.9
2017-Dec-08 13:30N 37°41' E 023°17'4 7.5
2017-Dec-08 13:00N 37°40' E 023°22'5 9.2
2017-Dec-08 12:29N 37°38' E 023°28'4 9.4
2017-Dec-08 12:00N 37°37' E 023°33'11 8.9
2017-Dec-08 10:43N 37°26' E 023°36'4 9.4
2017-Dec-08 10:19N 37°22' E 023°37'3 9.3
2017-Dec-08 09:59N 37°19' E 023°38'6 9.4
2017-Dec-08 09:23N 37°13' E 023°39'4 9.2
2017-Dec-08 09:00N 37°10' E 023°40'5 8.9
2017-Dec-08 08:28N 37°05' E 023°41'6 8.8
2017-Dec-08 07:50N 36°60' E 023°43'3 8.6
2017-Dec-08 07:26N 36°56' E 023°44'4 8.8
2017-Dec-08 07:00N 36°53' E 023°45'5 8.9
2017-Dec-08 06:28N 36°48' E 023°46'4 9.1
2017-Dec-08 06:00N 36°44' E 023°47'5 9.3
2017-Dec-08 05:30N 36°40' E 023°49'5 9.1
2017-Dec-08 05:00N 36°35' E 023°50'5 9.1
2017-Dec-08 04:30N 36°30' E 023°50'5 9.1
2017-Dec-08 03:58N 36°26' E 023°51'5 9.2
2017-Dec-08 03:25N 36°21' E 023°52'4 9.1
2017-Dec-08 03:00N 36°17' E 023°53'8 8.9
2017-Dec-08 02:07N 36°09' E 023°55'3 8.9
2017-Dec-08 01:46N 36°06' E 023°55'27 1.2
2017-Dec-07 02:34N 36°33' E 023°49'1 8.0
2017-Dec-07 02:30N 36°34' E 023°49'4 8.1
2017-Dec-07 01:58N 36°38' E 023°48'  

Dump ship's entire track history